Footsville, North Carolina
Current Conditions -  °F | °C
As of 11:54 PM on Monday 22 Dec 2014 (Local Time) from KINT Reporting Station
Haze Haze  
Wind Chill: 30°   Ceiling: 300
Heat Index: 36°   Visibility: 4mi
Dew Point: 34°   Wind: 8mph
Humidity: 93%   Direction: 50°NE
Pressure: 30.03"   Gusts: NA
Location:  36.1267°N, 80.6582°W
Report Text: KINT 230454Z AUTO 05007KT 4SM BR OVC003 02/01 A3003 RMK AO2 UPB03E24SNB08E19 SLP174 P0001 T00220011 400440011
Loading
Personal Weather Stations






























Interactive Weather Map New forecast layout! Learn more

10-Day Weather Forecast

Advertisements
Track Severe Weather on mobile